sensor_id;sensor_type;location;lat;lon;timestamp;P1;durP1;ratioP1;P2;durP2;ratioP2
29534;SDS011;72082;52.650;8.116;2023-08-30T00:01:44;1.70;;;1.60;;
29534;SDS011;72082;52.650;8.116;2023-08-30T00:04:09;2.07;;;1.97;;
29534;SDS011;72082;52.650;8.116;2023-08-30T00:06:34;3.63;;;2.63;;
29534;SDS011;72082;52.650;8.116;2023-08-30T00:08:59;3.13;;;2.70;;
29534;SDS011;72082;52.650;8.116;2023-08-30T00:11:25;4.00;;;3.73;;
29534;SDS011;72082;52.650;8.116;2023-08-30T00:13:50;3.87;;;3.47;;
29534;SDS011;72082;52.650;8.116;2023-08-30T00:16:15;4.23;;;2.67;;
29534;SDS011;72082;52.650;8.116;2023-08-30T00:18:40;3.80;;;3.07;;
29534;SDS011;72082;52.650;8.116;2023-08-30T00:21:06;3.70;;;3.40;;
29534;SDS011;72082;52.650;8.116;2023-08-30T00:23:31;3.53;;;3.23;;
29534;SDS011;72082;52.650;8.116;2023-08-30T00:25:56;3.60;;;3.40;;
29534;SDS011;72082;52.650;8.116;2023-08-30T00:28:21;8.90;;;4.00;;
29534;SDS011;72082;52.650;8.116;2023-08-30T00:30:52;5.10;;;3.93;;
29534;SDS011;72082;52.650;8.116;2023-08-30T00:33:18;5.20;;;3.30;;
29534;SDS011;72082;52.650;8.116;2023-08-30T00:35:43;4.60;;;2.73;;
29534;SDS011;72082;52.650;8.116;2023-08-30T00:38:08;2.77;;;2.57;;
29534;SDS011;72082;52.650;8.116;2023-08-30T00:40:37;4.47;;;3.30;;
29534;SDS011;72082;52.650;8.116;2023-08-30T00:43:04;4.07;;;3.63;;
29534;SDS011;72082;52.650;8.116;2023-08-30T00:45:29;4.97;;;3.77;;
29534;SDS011;72082;52.650;8.116;2023-08-30T00:47:54;3.77;;;3.40;;
29534;SDS011;72082;52.650;8.116;2023-08-30T00:50:19;2.93;;;2.73;;
29534;SDS011;72082;52.650;8.116;2023-08-30T00:52:45;5.63;;;3.97;;
29534;SDS011;72082;52.650;8.116;2023-08-30T00:55:10;8.63;;;3.60;;
29534;SDS011;72082;52.650;8.116;2023-08-30T00:57:36;4.40;;;4.00;;
29534;SDS011;72082;52.650;8.116;2023-08-30T01:00:02;3.40;;;3.10;;
29534;SDS011;72082;52.650;8.116;2023-08-30T01:02:30;2.73;;;2.53;;
29534;SDS011;72082;52.650;8.116;2023-08-30T01:04:56;4.10;;;3.70;;
29534;SDS011;72082;52.650;8.116;2023-08-30T01:07:23;3.93;;;2.80;;
29534;SDS011;72082;52.650;8.116;2023-08-30T01:09:48;7.43;;;3.67;;
29534;SDS011;72082;52.650;8.116;2023-08-30T01:12:16;3.37;;;3.17;;
29534;SDS011;72082;52.650;8.116;2023-08-30T01:17:35;4.50;;;3.63;;
29534;SDS011;72082;52.650;8.116;2023-08-30T01:20:04;4.40;;;4.07;;
29534;SDS011;72082;52.650;8.116;2023-08-30T01:27:45;4.47;;;4.10;;
29534;SDS011;72082;52.650;8.116;2023-08-30T01:30:13;3.77;;;3.47;;
29534;SDS011;72082;52.650;8.116;2023-08-30T01:32:40;4.03;;;3.60;;
29534;SDS011;72082;52.650;8.116;2023-08-30T01:35:07;4.30;;;3.70;;
29534;SDS011;72082;52.650;8.116;2023-08-30T01:37:33;2.50;;;2.40;;
29534;SDS011;72082;52.650;8.116;2023-08-30T01:40:01;3.40;;;3.10;;
29534;SDS011;72082;52.650;8.116;2023-08-30T01:42:28;4.57;;;4.00;;
29534;SDS011;72082;52.650;8.116;2023-08-30T01:44:55;3.50;;;3.20;;
29534;SDS011;72082;52.650;8.116;2023-08-30T01:47:24;4.40;;;3.60;;
29534;SDS011;72082;52.650;8.116;2023-08-30T01:49:52;9.10;;;4.50;;
29534;SDS011;72082;52.650;8.116;2023-08-30T01:52:18;3.20;;;3.00;;
29534;SDS011;72082;52.650;8.116;2023-08-30T01:54:47;3.83;;;3.43;;
29534;SDS011;72082;52.650;8.116;2023-08-30T01:57:13;3.33;;;3.10;;
29534;SDS011;72082;52.650;8.116;2023-08-30T01:59:40;15.00;;;4.17;;
29534;SDS011;72082;52.650;8.116;2023-08-30T02:02:05;4.13;;;3.70;;
29534;SDS011;72082;52.650;8.116;2023-08-30T02:04:30;4.03;;;3.10;;
29534;SDS011;72082;52.650;8.116;2023-08-30T02:06:58;2.63;;;2.43;;
29534;SDS011;72082;52.650;8.116;2023-08-30T02:09:28;3.63;;;2.90;;
29534;SDS011;72082;52.650;8.116;2023-08-30T02:12:00;5.80;;;2.57;;
29534;SDS011;72082;52.650;8.116;2023-08-30T02:14:32;4.07;;;3.70;;
29534;SDS011;72082;52.650;8.116;2023-08-30T02:16:58;5.13;;;4.17;;
29534;SDS011;72082;52.650;8.116;2023-08-30T02:19:23;4.40;;;3.00;;
29534;SDS011;72082;52.650;8.116;2023-08-30T02:21:50;2.67;;;2.50;;
29534;SDS011;72082;52.650;8.116;2023-08-30T02:24:15;2.57;;;2.37;;
29534;SDS011;72082;52.650;8.116;2023-08-30T02:26:40;3.33;;;2.93;;
29534;SDS011;72082;52.650;8.116;2023-08-30T02:29:06;3.70;;;3.33;;
29534;SDS011;72082;52.650;8.116;2023-08-30T02:31:31;6.50;;;3.27;;
29534;SDS011;72082;52.650;8.116;2023-08-30T02:33:56;5.23;;;2.63;;
29534;SDS011;72082;52.650;8.116;2023-08-30T02:36:22;3.10;;;2.60;;
29534;SDS011;72082;52.650;8.116;2023-08-30T02:38:47;4.90;;;3.97;;
29534;SDS011;72082;52.650;8.116;2023-08-30T02:41:12;2.40;;;2.20;;
29534;SDS011;72082;52.650;8.116;2023-08-30T02:43:37;4.80;;;3.20;;
29534;SDS011;72082;52.650;8.116;2023-08-30T02:46:03;8.10;;;3.33;;
29534;SDS011;72082;52.650;8.116;2023-08-30T02:48:29;2.97;;;2.77;;
29534;SDS011;72082;52.650;8.116;2023-08-30T02:50:54;5.20;;;3.40;;
29534;SDS011;72082;52.650;8.116;2023-08-30T02:53:19;3.17;;;2.90;;
29534;SDS011;72082;52.650;8.116;2023-08-30T02:55:46;3.30;;;3.10;;
29534;SDS011;72082;52.650;8.116;2023-08-30T02:58:11;3.23;;;2.93;;
29534;SDS011;72082;52.650;8.116;2023-08-30T03:00:37;3.30;;;3.03;;
29534;SDS011;72082;52.650;8.116;2023-08-30T03:03:02;4.13;;;3.83;;
29534;SDS011;72082;52.650;8.116;2023-08-30T03:05:28;4.60;;;3.30;;
29534;SDS011;72082;52.650;8.116;2023-08-30T03:07:53;4.63;;;3.67;;
29534;SDS011;72082;52.650;8.116;2023-08-30T03:10:18;3.70;;;3.40;;
29534;SDS011;72082;52.650;8.116;2023-08-30T03:12:44;17.73;;;3.27;;
29534;SDS011;72082;52.650;8.116;2023-08-30T03:15:09;3.67;;;2.90;;
29534;SDS011;72082;52.650;8.116;2023-08-30T03:17:34;2.57;;;2.47;;
29534;SDS011;72082;52.650;8.116;2023-08-30T03:20:00;4.10;;;3.73;;
29534;SDS011;72082;52.650;8.116;2023-08-30T03:22:25;3.47;;;2.97;;
29534;SDS011;72082;52.650;8.116;2023-08-30T03:24:50;5.03;;;3.40;;
29534;SDS011;72082;52.650;8.116;2023-08-30T03:27:16;2.60;;;2.50;;
29534;SDS011;72082;52.650;8.116;2023-08-30T03:29:41;3.50;;;3.20;;
29534;SDS011;72082;52.650;8.116;2023-08-30T03:32:07;8.53;;;5.07;;
29534;SDS011;72082;52.650;8.116;2023-08-30T03:34:32;3.03;;;2.73;;
29534;SDS011;72082;52.650;8.116;2023-08-30T03:36:58;4.33;;;3.93;;
29534;SDS011;72082;52.650;8.116;2023-08-30T03:39:23;3.43;;;3.10;;
29534;SDS011;72082;52.650;8.116;2023-08-30T03:41:48;4.23;;;3.10;;
29534;SDS011;72082;52.650;8.116;2023-08-30T03:44:13;4.83;;;3.60;;
29534;SDS011;72082;52.650;8.116;2023-08-30T03:46:39;2.33;;;2.23;;
29534;SDS011;72082;52.650;8.116;2023-08-30T03:49:04;4.00;;;3.03;;
29534;SDS011;72082;52.650;8.116;2023-08-30T03:51:29;2.67;;;2.47;;
29534;SDS011;72082;52.650;8.116;2023-08-30T03:53:54;2.63;;;2.43;;
29534;SDS011;72082;52.650;8.116;2023-08-30T03:56:20;5.43;;;3.77;;
29534;SDS011;72082;52.650;8.116;2023-08-30T03:58:45;6.53;;;3.87;;
29534;SDS011;72082;52.650;8.116;2023-08-30T04:01:10;4.47;;;4.17;;
29534;SDS011;72082;52.650;8.116;2023-08-30T04:03:35;5.57;;;4.60;;
29534;SDS011;72082;52.650;8.116;2023-08-30T04:06:00;4.00;;;3.60;;
29534;SDS011;72082;52.650;8.116;2023-08-30T04:08:26;5.10;;;2.93;;
29534;SDS011;72082;52.650;8.116;2023-08-30T04:10:52;2.57;;;2.47;;
29534;SDS011;72082;52.650;8.116;2023-08-30T04:13:18;6.33;;;4.13;;
29534;SDS011;72082;52.650;8.116;2023-08-30T04:15:43;4.67;;;4.17;;
29534;SDS011;72082;52.650;8.116;2023-08-30T04:18:08;5.17;;;4.40;;
29534;SDS011;72082;52.650;8.116;2023-08-30T04:20:34;13.63;;;4.90;;
29534;SDS011;72082;52.650;8.116;2023-08-30T04:22:59;5.50;;;4.60;;
29534;SDS011;72082;52.650;8.116;2023-08-30T04:25:25;4.30;;;3.97;;
29534;SDS011;72082;52.650;8.116;2023-08-30T04:27:50;7.17;;;4.63;;
29534;SDS011;72082;52.650;8.116;2023-08-30T04:30:16;3.13;;;2.93;;
29534;SDS011;72082;52.650;8.116;2023-08-30T04:32:41;4.00;;;3.40;;
29534;SDS011;72082;52.650;8.116;2023-08-30T04:35:07;9.90;;;5.00;;
29534;SDS011;72082;52.650;8.116;2023-08-30T04:37:32;4.47;;;4.10;;
29534;SDS011;72082;52.650;8.116;2023-08-30T04:39:58;6.77;;;4.47;;
29534;SDS011;72082;52.650;8.116;2023-08-30T04:42:23;6.10;;;4.37;;
29534;SDS011;72082;52.650;8.116;2023-08-30T04:44:48;4.13;;;3.80;;
29534;SDS011;72082;52.650;8.116;2023-08-30T04:47:14;13.00;;;5.00;;
29534;SDS011;72082;52.650;8.116;2023-08-30T04:49:39;5.57;;;4.60;;
29534;SDS011;72082;52.650;8.116;2023-08-30T04:52:04;7.50;;;5.27;;
29534;SDS011;72082;52.650;8.116;2023-08-30T04:54:30;5.47;;;4.87;;
29534;SDS011;72082;52.650;8.116;2023-08-30T04:56:55;7.27;;;4.30;;
29534;SDS011;72082;52.650;8.116;2023-08-30T04:59:20;9.13;;;5.60;;
29534;SDS011;72082;52.650;8.116;2023-08-30T05:01:45;9.63;;;5.63;;
29534;SDS011;72082;52.650;8.116;2023-08-30T05:04:10;16.10;;;5.97;;
29534;SDS011;72082;52.650;8.116;2023-08-30T05:06:36;6.70;;;5.27;;
29534;SDS011;72082;52.650;8.116;2023-08-30T05:09:01;7.10;;;5.70;;
29534;SDS011;72082;52.650;8.116;2023-08-30T05:11:27;10.27;;;5.87;;
29534;SDS011;72082;52.650;8.116;2023-08-30T05:13:52;6.03;;;4.40;;
29534;SDS011;72082;52.650;8.116;2023-08-30T05:16:17;3.43;;;3.23;;
29534;SDS011;72082;52.650;8.116;2023-08-30T05:18:42;7.60;;;5.60;;
29534;SDS011;72082;52.650;8.116;2023-08-30T05:21:07;7.93;;;6.03;;
29534;SDS011;72082;52.650;8.116;2023-08-30T05:23:33;4.40;;;4.00;;
29534;SDS011;72082;52.650;8.116;2023-08-30T05:25:58;4.53;;;4.13;;
29534;SDS011;72082;52.650;8.116;2023-08-30T05:28:23;4.77;;;4.27;;
29534;SDS011;72082;52.650;8.116;2023-08-30T05:30:48;6.97;;;4.33;;
29534;SDS011;72082;52.650;8.116;2023-08-30T05:33:14;5.27;;;4.20;;
29534;SDS011;72082;52.650;8.116;2023-08-30T05:35:39;5.60;;;5.03;;
29534;SDS011;72082;52.650;8.116;2023-08-30T05:38:04;5.23;;;4.73;;
29534;SDS011;72082;52.650;8.116;2023-08-30T05:40:29;16.73;;;5.20;;
29534;SDS011;72082;52.650;8.116;2023-08-30T05:42:54;10.80;;;5.40;;
29534;SDS011;72082;52.650;8.116;2023-08-30T05:45:20;7.80;;;4.60;;
29534;SDS011;72082;52.650;8.116;2023-08-30T05:47:45;4.23;;;3.83;;
29534;SDS011;72082;52.650;8.116;2023-08-30T05:50:10;10.93;;;4.20;;
29534;SDS011;72082;52.650;8.116;2023-08-30T05:52:36;4.87;;;4.37;;
29534;SDS011;72082;52.650;8.116;2023-08-30T05:55:01;15.80;;;6.13;;
29534;SDS011;72082;52.650;8.116;2023-08-30T05:57:26;6.23;;;5.03;;
29534;SDS011;72082;52.650;8.116;2023-08-30T05:59:51;7.20;;;4.30;;
29534;SDS011;72082;52.650;8.116;2023-08-30T06:02:17;4.43;;;3.40;;
29534;SDS011;72082;52.650;8.116;2023-08-30T06:04:42;5.80;;;4.97;;
29534;SDS011;72082;52.650;8.116;2023-08-30T06:07:07;7.47;;;5.60;;
29534;SDS011;72082;52.650;8.116;2023-08-30T06:09:33;4.17;;;3.77;;
29534;SDS011;72082;52.650;8.116;2023-08-30T06:11:58;4.47;;;4.17;;
29534;SDS011;72082;52.650;8.116;2023-08-30T06:14:23;7.00;;;5.00;;
29534;SDS011;72082;52.650;8.116;2023-08-30T06:16:48;8.40;;;5.33;;
29534;SDS011;72082;52.650;8.116;2023-08-30T06:19:13;9.13;;;5.30;;
29534;SDS011;72082;52.650;8.116;2023-08-30T06:21:39;10.53;;;6.20;;
29534;SDS011;72082;52.650;8.116;2023-08-30T06:24:04;7.93;;;5.57;;
29534;SDS011;72082;52.650;8.116;2023-08-30T06:26:29;5.80;;;4.57;;
29534;SDS011;72082;52.650;8.116;2023-08-30T06:28:55;4.27;;;3.83;;
29534;SDS011;72082;52.650;8.116;2023-08-30T06:31:20;8.60;;;7.90;;
29534;SDS011;72082;52.650;8.116;2023-08-30T06:33:45;6.57;;;4.97;;
29534;SDS011;72082;52.650;8.116;2023-08-30T06:36:10;17.23;;;5.60;;
29534;SDS011;72082;52.650;8.116;2023-08-30T06:38:36;19.70;;;4.73;;
29534;SDS011;72082;52.650;8.116;2023-08-30T06:41:01;6.60;;;4.70;;
29534;SDS011;72082;52.650;8.116;2023-08-30T06:43:26;6.93;;;4.60;;
29534;SDS011;72082;52.650;8.116;2023-08-30T06:45:51;7.60;;;5.80;;
29534;SDS011;72082;52.650;8.116;2023-08-30T06:48:16;5.90;;;5.40;;
29534;SDS011;72082;52.650;8.116;2023-08-30T06:50:42;6.23;;;4.87;;
29534;SDS011;72082;52.650;8.116;2023-08-30T06:53:07;13.13;;;5.10;;
29534;SDS011;72082;52.650;8.116;2023-08-30T06:55:32;26.80;;;6.40;;
29534;SDS011;72082;52.650;8.116;2023-08-30T06:57:57;4.53;;;4.13;;
29534;SDS011;72082;52.650;8.116;2023-08-30T07:00:22;5.17;;;4.67;;
29534;SDS011;72082;52.650;8.116;2023-08-30T07:02:48;10.67;;;5.07;;
29534;SDS011;72082;52.650;8.116;2023-08-30T07:05:13;4.90;;;4.43;;
29534;SDS011;72082;52.650;8.116;2023-08-30T07:07:38;5.80;;;5.03;;
29534;SDS011;72082;52.650;8.116;2023-08-30T07:10:04;11.87;;;6.27;;
29534;SDS011;72082;52.650;8.116;2023-08-30T07:12:29;9.97;;;5.77;;
29534;SDS011;72082;52.650;8.116;2023-08-30T07:14:55;6.80;;;5.30;;
29534;SDS011;72082;52.650;8.116;2023-08-30T07:17:20;12.83;;;4.63;;
29534;SDS011;72082;52.650;8.116;2023-08-30T07:19:45;6.33;;;5.73;;
29534;SDS011;72082;52.650;8.116;2023-08-30T07:22:10;7.67;;;5.23;;
29534;SDS011;72082;52.650;8.116;2023-08-30T07:24:36;7.07;;;5.00;;
29534;SDS011;72082;52.650;8.116;2023-08-30T07:27:01;6.60;;;4.87;;
29534;SDS011;72082;52.650;8.116;2023-08-30T07:29:26;4.60;;;4.13;;
29534;SDS011;72082;52.650;8.116;2023-08-30T07:31:52;28.77;;;8.97;;
29534;SDS011;72082;52.650;8.116;2023-08-30T07:34:17;6.83;;;4.70;;
29534;SDS011;72082;52.650;8.116;2023-08-30T07:36:43;5.77;;;4.93;;
29534;SDS011;72082;52.650;8.116;2023-08-30T07:39:08;4.73;;;4.33;;
29534;SDS011;72082;52.650;8.116;2023-08-30T07:41:33;9.97;;;6.70;;
29534;SDS011;72082;52.650;8.116;2023-08-30T07:43:58;4.80;;;4.30;;
29534;SDS011;72082;52.650;8.116;2023-08-30T07:46:24;6.10;;;4.40;;
29534;SDS011;72082;52.650;8.116;2023-08-30T07:48:49;7.70;;;4.93;;
29534;SDS011;72082;52.650;8.116;2023-08-30T07:51:14;4.57;;;4.17;;
29534;SDS011;72082;52.650;8.116;2023-08-30T07:53:39;5.63;;;4.80;;
29534;SDS011;72082;52.650;8.116;2023-08-30T07:56:04;5.50;;;4.77;;
29534;SDS011;72082;52.650;8.116;2023-08-30T07:58:30;17.60;;;5.20;;
29534;SDS011;72082;52.650;8.116;2023-08-30T08:00:55;9.10;;;6.13;;
29534;SDS011;72082;52.650;8.116;2023-08-30T08:03:20;7.77;;;5.83;;
29534;SDS011;72082;52.650;8.116;2023-08-30T08:05:46;12.30;;;6.00;;
29534;SDS011;72082;52.650;8.116;2023-08-30T08:08:11;7.77;;;5.97;;
29534;SDS011;72082;52.650;8.116;2023-08-30T08:10:36;7.40;;;5.17;;
29534;SDS011;72082;52.650;8.116;2023-08-30T08:13:02;10.10;;;5.93;;
29534;SDS011;72082;52.650;8.116;2023-08-30T08:15:28;9.63;;;5.87;;
29534;SDS011;72082;52.650;8.116;2023-08-30T08:17:53;4.60;;;4.00;;
29534;SDS011;72082;52.650;8.116;2023-08-30T08:20:18;7.00;;;4.90;;
29534;SDS011;72082;52.650;8.116;2023-08-30T08:22:43;6.40;;;5.07;;
29534;SDS011;72082;52.650;8.116;2023-08-30T08:25:09;10.83;;;5.30;;
29534;SDS011;72082;52.650;8.116;2023-08-30T08:27:34;10.73;;;6.83;;
29534;SDS011;72082;52.650;8.116;2023-08-30T08:29:59;9.57;;;4.33;;
29534;SDS011;72082;52.650;8.116;2023-08-30T08:32:24;4.80;;;3.67;;
29534;SDS011;72082;52.650;8.116;2023-08-30T08:34:50;5.33;;;4.03;;
29534;SDS011;72082;52.650;8.116;2023-08-30T08:37:15;6.97;;;4.73;;
29534;SDS011;72082;52.650;8.116;2023-08-30T08:39:40;5.23;;;4.23;;
29534;SDS011;72082;52.650;8.116;2023-08-30T08:42:05;8.73;;;5.70;;
29534;SDS011;72082;52.650;8.116;2023-08-30T08:44:31;10.77;;;5.53;;
29534;SDS011;72082;52.650;8.116;2023-08-30T08:46:57;5.80;;;5.20;;
29534;SDS011;72082;52.650;8.116;2023-08-30T08:49:24;8.70;;;5.60;;
29534;SDS011;72082;52.650;8.116;2023-08-30T08:51:50;7.37;;;4.97;;
29534;SDS011;72082;52.650;8.116;2023-08-30T08:54:15;11.80;;;5.97;;
29534;SDS011;72082;52.650;8.116;2023-08-30T08:56:41;10.93;;;5.30;;
29534;SDS011;72082;52.650;8.116;2023-08-30T08:59:06;8.83;;;5.43;;
29534;SDS011;72082;52.650;8.116;2023-08-30T09:01:32;19.33;;;7.10;;
29534;SDS011;72082;52.650;8.116;2023-08-30T09:03:58;10.00;;;6.30;;
29534;SDS011;72082;52.650;8.116;2023-08-30T09:06:24;8.50;;;4.67;;
29534;SDS011;72082;52.650;8.116;2023-08-30T09:08:50;24.30;;;6.87;;
29534;SDS011;72082;52.650;8.116;2023-08-30T09:11:15;6.77;;;5.27;;
29534;SDS011;72082;52.650;8.116;2023-08-30T09:13:42;6.97;;;5.73;;
29534;SDS011;72082;52.650;8.116;2023-08-30T09:16:11;8.00;;;5.00;;
29534;SDS011;72082;52.650;8.116;2023-08-30T09:18:37;8.20;;;4.70;;
29534;SDS011;72082;52.650;8.116;2023-08-30T09:21:06;15.43;;;5.90;;
29534;SDS011;72082;52.650;8.116;2023-08-30T09:23:32;8.00;;;6.10;;
29534;SDS011;72082;52.650;8.116;2023-08-30T09:25:57;16.03;;;6.50;;
29534;SDS011;72082;52.650;8.116;2023-08-30T09:28:22;17.97;;;6.17;;
29534;SDS011;72082;52.650;8.116;2023-08-30T09:30:50;22.80;;;6.30;;
29534;SDS011;72082;52.650;8.116;2023-08-30T09:33:20;11.97;;;8.07;;
29534;SDS011;72082;52.650;8.116;2023-08-30T09:35:46;9.10;;;5.57;;
29534;SDS011;72082;52.650;8.116;2023-08-30T09:38:17;15.97;;;6.57;;
29534;SDS011;72082;52.650;8.116;2023-08-30T09:40:43;28.73;;;7.67;;
29534;SDS011;72082;52.650;8.116;2023-08-30T09:43:09;12.13;;;6.10;;
29534;SDS011;72082;52.650;8.116;2023-08-30T09:45:35;16.93;;;4.53;;
29534;SDS011;72082;52.650;8.116;2023-08-30T09:48:01;10.07;;;6.20;;
29534;SDS011;72082;52.650;8.116;2023-08-30T09:50:26;11.93;;;5.60;;
29534;SDS011;72082;52.650;8.116;2023-08-30T09:52:58;8.07;;;6.43;;
29534;SDS011;72082;52.650;8.116;2023-08-30T09:55:24;12.77;;;7.00;;
29534;SDS011;72082;52.650;8.116;2023-08-30T09:57:50;13.93;;;7.60;;
29534;SDS011;72082;52.650;8.116;2023-08-30T10:00:15;6.40;;;5.20;;
29534;SDS011;72082;52.650;8.116;2023-08-30T10:02:41;13.00;;;6.43;;
29534;SDS011;72082;52.650;8.116;2023-08-30T10:05:08;6.00;;;5.30;;
29534;SDS011;72082;52.650;8.116;2023-08-30T10:07:33;8.83;;;6.43;;
29534;SDS011;72082;52.650;8.116;2023-08-30T10:10:00;13.20;;;8.37;;
29534;SDS011;72082;52.650;8.116;2023-08-30T10:12:28;13.17;;;5.73;;
29534;SDS011;72082;52.650;8.116;2023-08-30T10:14:53;15.67;;;6.03;;
29534;SDS011;72082;52.650;8.116;2023-08-30T10:17:19;9.63;;;5.60;;
29534;SDS011;72082;52.650;8.116;2023-08-30T10:19:46;12.43;;;8.23;;
29534;SDS011;72082;52.650;8.116;2023-08-30T10:22:12;21.83;;;6.63;;
29534;SDS011;72082;52.650;8.116;2023-08-30T10:24:46;12.87;;;6.90;;
29534;SDS011;72082;52.650;8.116;2023-08-30T10:27:15;9.53;;;5.63;;
29534;SDS011;72082;52.650;8.116;2023-08-30T10:29:41;16.37;;;6.77;;
29534;SDS011;72082;52.650;8.116;2023-08-30T10:32:09;11.37;;;6.10;;
29534;SDS011;72082;52.650;8.116;2023-08-30T10:34:35;10.90;;;5.13;;
29534;SDS011;72082;52.650;8.116;2023-08-30T10:37:02;8.30;;;6.03;;
29534;SDS011;72082;52.650;8.116;2023-08-30T10:39:41;7.77;;;5.07;;
29534;SDS011;72082;52.650;8.116;2023-08-30T10:42:11;9.07;;;6.07;;
29534;SDS011;72082;52.650;8.116;2023-08-30T10:44:57;6.97;;;5.10;;
29534;SDS011;72082;52.650;8.116;2023-08-30T10:47:29;15.43;;;5.63;;
29534;SDS011;72082;52.650;8.116;2023-08-30T10:49:56;7.70;;;5.57;;
29534;SDS011;72082;52.650;8.116;2023-08-30T10:52:24;8.63;;;6.47;;
29534;SDS011;72082;52.650;8.116;2023-08-30T10:54:50;8.27;;;5.73;;
29534;SDS011;72082;52.650;8.116;2023-08-30T10:57:15;49.97;;;8.97;;
29534;SDS011;72082;52.650;8.116;2023-08-30T11:02:34;8.20;;;6.03;;
29534;SDS011;72082;52.650;8.116;2023-08-30T11:05:01;11.67;;;6.00;;
29534;SDS011;72082;52.650;8.116;2023-08-30T11:07:27;9.30;;;4.23;;
29534;SDS011;72082;52.650;8.116;2023-08-30T11:09:52;6.27;;;4.53;;
29534;SDS011;72082;52.650;8.116;2023-08-30T11:12:18;6.40;;;5.50;;
29534;SDS011;72082;52.650;8.116;2023-08-30T11:14:43;19.83;;;5.87;;
29534;SDS011;72082;52.650;8.116;2023-08-30T11:17:11;11.03;;;6.13;;
29534;SDS011;72082;52.650;8.116;2023-08-30T11:19:37;7.83;;;5.07;;
29534;SDS011;72082;52.650;8.116;2023-08-30T11:22:02;10.37;;;5.37;;
29534;SDS011;72082;52.650;8.116;2023-08-30T11:24:28;7.90;;;5.90;;
29534;SDS011;72082;52.650;8.116;2023-08-30T11:26:53;5.70;;;4.53;;
29534;SDS011;72082;52.650;8.116;2023-08-30T11:29:19;7.53;;;5.77;;
29534;SDS011;72082;52.650;8.116;2023-08-30T11:31:44;20.43;;;6.77;;
29534;SDS011;72082;52.650;8.116;2023-08-30T11:34:10;7.90;;;6.13;;
29534;SDS011;72082;52.650;8.116;2023-08-30T11:36:35;13.40;;;7.57;;
29534;SDS011;72082;52.650;8.116;2023-08-30T11:39:01;10.47;;;6.07;;
29534;SDS011;72082;52.650;8.116;2023-08-30T11:41:27;11.47;;;6.97;;
29534;SDS011;72082;52.650;8.116;2023-08-30T11:43:52;22.67;;;7.77;;
29534;SDS011;72082;52.650;8.116;2023-08-30T11:46:18;10.73;;;4.97;;
29534;SDS011;72082;52.650;8.116;2023-08-30T11:48:44;20.30;;;7.47;;
29534;SDS011;72082;52.650;8.116;2023-08-30T11:51:11;11.17;;;6.20;;
29534;SDS011;72082;52.650;8.116;2023-08-30T11:53:37;7.40;;;5.23;;
29534;SDS011;72082;52.650;8.116;2023-08-30T11:56:03;10.47;;;7.47;;
29534;SDS011;72082;52.650;8.116;2023-08-30T11:58:33;23.57;;;6.90;;
29534;SDS011;72082;52.650;8.116;2023-08-30T12:00:59;11.20;;;6.80;;
29534;SDS011;72082;52.650;8.116;2023-08-30T12:03:28;9.23;;;5.63;;
29534;SDS011;72082;52.650;8.116;2023-08-30T12:05:54;13.50;;;7.37;;
29534;SDS011;72082;52.650;8.116;2023-08-30T12:08:21;10.50;;;6.70;;
29534;SDS011;72082;52.650;8.116;2023-08-30T12:10:48;7.43;;;4.87;;
29534;SDS011;72082;52.650;8.116;2023-08-30T12:15:46;8.63;;;6.63;;
29534;SDS011;72082;52.650;8.116;2023-08-30T12:18:11;40.17;;;6.80;;
29534;SDS011;72082;52.650;8.116;2023-08-30T12:20:37;18.90;;;7.20;;
29534;SDS011;72082;52.650;8.116;2023-08-30T12:23:02;7.20;;;5.93;;
29534;SDS011;72082;52.650;8.116;2023-08-30T12:25:27;11.77;;;7.50;;
29534;SDS011;72082;52.650;8.116;2023-08-30T12:27:52;15.33;;;8.10;;
29534;SDS011;72082;52.650;8.116;2023-08-30T12:30:18;16.80;;;9.30;;
29534;SDS011;72082;52.650;8.116;2023-08-30T12:32:44;16.70;;;10.07;;
29534;SDS011;72082;52.650;8.116;2023-08-30T12:35:10;26.60;;;7.27;;
29534;SDS011;72082;52.650;8.116;2023-08-30T12:37:36;6.93;;;5.70;;
29534;SDS011;72082;52.650;8.116;2023-08-30T12:40:01;18.33;;;7.87;;
29534;SDS011;72082;52.650;8.116;2023-08-30T12:42:26;10.97;;;6.77;;
29534;SDS011;72082;52.650;8.116;2023-08-30T12:44:51;10.00;;;6.87;;
29534;SDS011;72082;52.650;8.116;2023-08-30T12:47:17;15.57;;;7.80;;
29534;SDS011;72082;52.650;8.116;2023-08-30T12:49:42;8.07;;;6.60;;
29534;SDS011;72082;52.650;8.116;2023-08-30T12:52:07;32.43;;;9.13;;
29534;SDS011;72082;52.650;8.116;2023-08-30T12:54:32;13.73;;;5.67;;
29534;SDS011;72082;52.650;8.116;2023-08-30T12:56:58;14.00;;;8.03;;
29534;SDS011;72082;52.650;8.116;2023-08-30T12:59:23;14.63;;;9.27;;
29534;SDS011;72082;52.650;8.116;2023-08-30T13:01:48;7.43;;;6.73;;
29534;SDS011;72082;52.650;8.116;2023-08-30T13:04:13;21.13;;;8.67;;
29534;SDS011;72082;52.650;8.116;2023-08-30T13:06:38;11.20;;;6.23;;
29534;SDS011;72082;52.650;8.116;2023-08-30T13:09:04;8.87;;;6.83;;
29534;SDS011;72082;52.650;8.116;2023-08-30T13:11:29;13.43;;;8.70;;
29534;SDS011;72082;52.650;8.116;2023-08-30T13:13:54;8.63;;;6.53;;
29534;SDS011;72082;52.650;8.116;2023-08-30T13:16:19;19.83;;;8.83;;
29534;SDS011;72082;52.650;8.116;2023-08-30T13:18:44;7.70;;;6.77;;
29534;SDS011;72082;52.650;8.116;2023-08-30T13:21:10;11.27;;;7.17;;
29534;SDS011;72082;52.650;8.116;2023-08-30T13:23:35;7.27;;;6.57;;
29534;SDS011;72082;52.650;8.116;2023-08-30T13:26:00;9.30;;;4.80;;
29534;SDS011;72082;52.650;8.116;2023-08-30T13:28:26;20.43;;;7.60;;
29534;SDS011;72082;52.650;8.116;2023-08-30T13:30:51;10.53;;;6.93;;
29534;SDS011;72082;52.650;8.116;2023-08-30T13:33:16;12.20;;;6.03;;
29534;SDS011;72082;52.650;8.116;2023-08-30T13:35:41;9.00;;;5.90;;
29534;SDS011;72082;52.650;8.116;2023-08-30T13:38:07;5.63;;;5.13;;
29534;SDS011;72082;52.650;8.116;2023-08-30T13:40:32;9.13;;;5.07;;
29534;SDS011;72082;52.650;8.116;2023-08-30T13:42:57;5.80;;;4.70;;
29534;SDS011;72082;52.650;8.116;2023-08-30T13:45:23;7.37;;;4.70;;
29534;SDS011;72082;52.650;8.116;2023-08-30T13:47:48;7.23;;;4.60;;
29534;SDS011;72082;52.650;8.116;2023-08-30T13:50:13;5.57;;;4.80;;
29534;SDS011;72082;52.650;8.116;2023-08-30T13:52:38;4.13;;;3.87;;
29534;SDS011;72082;52.650;8.116;2023-08-30T13:55:04;5.00;;;4.60;;
29534;SDS011;72082;52.650;8.116;2023-08-30T13:57:29;9.50;;;4.63;;
29534;SDS011;72082;52.650;8.116;2023-08-30T13:59:54;3.83;;;3.60;;
29534;SDS011;72082;52.650;8.116;2023-08-30T14:02:20;11.70;;;4.73;;
29534;SDS011;72082;52.650;8.116;2023-08-30T14:04:45;3.77;;;3.47;;
29534;SDS011;72082;52.650;8.116;2023-08-30T14:07:10;7.43;;;4.77;;
29534;SDS011;72082;52.650;8.116;2023-08-30T14:09:35;22.73;;;4.60;;
29534;SDS011;72082;52.650;8.116;2023-08-30T14:12:01;5.57;;;3.80;;
29534;SDS011;72082;52.650;8.116;2023-08-30T14:14:26;3.57;;;3.20;;
29534;SDS011;72082;52.650;8.116;2023-08-30T14:16:51;3.93;;;3.57;;
29534;SDS011;72082;52.650;8.116;2023-08-30T14:19:16;3.33;;;3.13;;
29534;SDS011;72082;52.650;8.116;2023-08-30T14:21:42;4.57;;;4.17;;
29534;SDS011;72082;52.650;8.116;2023-08-30T14:24:07;2.90;;;2.70;;
29534;SDS011;72082;52.650;8.116;2023-08-30T14:26:32;6.17;;;4.10;;
29534;SDS011;72082;52.650;8.116;2023-08-30T14:28:57;3.33;;;3.03;;
29534;SDS011;72082;52.650;8.116;2023-08-30T14:31:23;2.60;;;2.40;;
29534;SDS011;72082;52.650;8.116;2023-08-30T14:33:48;5.63;;;3.57;;
29534;SDS011;72082;52.650;8.116;2023-08-30T14:36:13;3.90;;;3.60;;
29534;SDS011;72082;52.650;8.116;2023-08-30T14:38:38;3.47;;;3.17;;
29534;SDS011;72082;52.650;8.116;2023-08-30T14:41:04;3.53;;;3.30;;
29534;SDS011;72082;52.650;8.116;2023-08-30T14:43:29;3.63;;;3.43;;
29534;SDS011;72082;52.650;8.116;2023-08-30T14:46:01;9.17;;;3.03;;
29534;SDS011;72082;52.650;8.116;2023-08-30T14:48:27;3.90;;;3.60;;